sensor_id;sensor_type;location;lat;lon;timestamp;temperature;humidity
33865;DHT22;20159;51.072;13.526;2023-05-29T00:01:07;11.80;79.60
33865;DHT22;20159;51.072;13.526;2023-05-29T00:03:34;11.70;79.60
33865;DHT22;20159;51.072;13.526;2023-05-29T00:06:02;11.70;79.80
33865;DHT22;20159;51.072;13.526;2023-05-29T00:08:28;11.70;79.50
33865;DHT22;20159;51.072;13.526;2023-05-29T00:10:53;11.60;79.60
33865;DHT22;20159;51.072;13.526;2023-05-29T00:13:19;11.60;79.80
33865;DHT22;20159;51.072;13.526;2023-05-29T00:15:46;11.60;79.70
33865;DHT22;20159;51.072;13.526;2023-05-29T00:18:11;11.50;80.10
33865;DHT22;20159;51.072;13.526;2023-05-29T00:20:37;11.50;80.10
33865;DHT22;20159;51.072;13.526;2023-05-29T00:23:03;11.50;80.10
33865;DHT22;20159;51.072;13.526;2023-05-29T00:25:31;11.40;80.10
33865;DHT22;20159;51.072;13.526;2023-05-29T00:27:57;11.40;80.30
33865;DHT22;20159;51.072;13.526;2023-05-29T00:30:22;11.40;80.10
33865;DHT22;20159;51.072;13.526;2023-05-29T00:32:48;11.40;80.00
33865;DHT22;20159;51.072;13.526;2023-05-29T00:35:13;11.40;80.10
33865;DHT22;20159;51.072;13.526;2023-05-29T00:37:39;11.30;80.40
33865;DHT22;20159;51.072;13.526;2023-05-29T00:40:05;11.30;80.40
33865;DHT22;20159;51.072;13.526;2023-05-29T00:42:31;11.30;80.40
33865;DHT22;20159;51.072;13.526;2023-05-29T00:44:57;11.30;80.40
33865;DHT22;20159;51.072;13.526;2023-05-29T00:47:22;11.30;80.40
33865;DHT22;20159;51.072;13.526;2023-05-29T00:49:49;11.20;80.50
33865;DHT22;20159;51.072;13.526;2023-05-29T00:52:16;11.20;80.60
33865;DHT22;20159;51.072;13.526;2023-05-29T00:54:44;11.20;80.50
33865;DHT22;20159;51.072;13.526;2023-05-29T00:57:10;11.10;80.50
33865;DHT22;20159;51.072;13.526;2023-05-29T00:59:37;11.10;80.80
33865;DHT22;20159;51.072;13.526;2023-05-29T01:02:03;11.10;80.80
33865;DHT22;20159;51.072;13.526;2023-05-29T01:04:29;11.10;80.90
33865;DHT22;20159;51.072;13.526;2023-05-29T01:06:54;11.00;80.70
33865;DHT22;20159;51.072;13.526;2023-05-29T01:09:21;11.00;80.60
33865;DHT22;20159;51.072;13.526;2023-05-29T01:14:29;10.90;80.80
33865;DHT22;20159;51.072;13.526;2023-05-29T01:17:19;10.90;81.70
33865;DHT22;20159;51.072;13.526;2023-05-29T01:25:30;10.80;81.90
33865;DHT22;20159;51.072;13.526;2023-05-29T01:28:00;10.80;82.00
33865;DHT22;20159;51.072;13.526;2023-05-29T01:30:28;10.70;81.50
33865;DHT22;20159;51.072;13.526;2023-05-29T01:32:56;10.70;81.60
33865;DHT22;20159;51.072;13.526;2023-05-29T01:35:22;10.70;81.40
33865;DHT22;20159;51.072;13.526;2023-05-29T01:37:47;10.60;81.70
33865;DHT22;20159;51.072;13.526;2023-05-29T01:40:13;10.60;81.80
33865;DHT22;20159;51.072;13.526;2023-05-29T01:42:39;10.60;81.70
33865;DHT22;20159;51.072;13.526;2023-05-29T01:45:05;10.60;81.80
33865;DHT22;20159;51.072;13.526;2023-05-29T01:47:32;10.50;81.90
33865;DHT22;20159;51.072;13.526;2023-05-29T01:49:58;10.50;82.00
33865;DHT22;20159;51.072;13.526;2023-05-29T01:52:25;10.50;81.90
33865;DHT22;20159;51.072;13.526;2023-05-29T01:54:50;10.40;82.00
33865;DHT22;20159;51.072;13.526;2023-05-29T01:57:16;10.40;82.00
33865;DHT22;20159;51.072;13.526;2023-05-29T01:59:42;10.40;82.20
33865;DHT22;20159;51.072;13.526;2023-05-29T02:02:08;10.40;82.30
33865;DHT22;20159;51.072;13.526;2023-05-29T02:04:33;9.20;81.20
33865;DHT22;20159;51.072;13.526;2023-05-29T02:06:59;10.30;81.80
33865;DHT22;20159;51.072;13.526;2023-05-29T02:09:24;10.20;82.40
33865;DHT22;20159;51.072;13.526;2023-05-29T02:11:50;10.20;82.60
33865;DHT22;20159;51.072;13.526;2023-05-29T02:14:16;10.10;83.00
33865;DHT22;20159;51.072;13.526;2023-05-29T02:16:41;10.10;82.90
33865;DHT22;20159;51.072;13.526;2023-05-29T02:19:09;10.00;82.90
33865;DHT22;20159;51.072;13.526;2023-05-29T02:21:38;10.00;83.20
33865;DHT22;20159;51.072;13.526;2023-05-29T02:24:04;9.90;83.50
33865;DHT22;20159;51.072;13.526;2023-05-29T02:26:29;9.90;83.80
33865;DHT22;20159;51.072;13.526;2023-05-29T02:28:55;9.80;83.30
33865;DHT22;20159;51.072;13.526;2023-05-29T02:31:21;9.80;83.60
33865;DHT22;20159;51.072;13.526;2023-05-29T02:33:46;9.80;83.80
33865;DHT22;20159;51.072;13.526;2023-05-29T02:36:13;9.70;84.00
33865;DHT22;20159;51.072;13.526;2023-05-29T02:38:38;9.70;84.30
33865;DHT22;20159;51.072;13.526;2023-05-29T02:41:04;9.60;84.30
33865;DHT22;20159;51.072;13.526;2023-05-29T02:43:29;9.60;84.30
33865;DHT22;20159;51.072;13.526;2023-05-29T02:45:57;9.70;84.50
33865;DHT22;20159;51.072;13.526;2023-05-29T02:48:22;9.50;84.80
33865;DHT22;20159;51.072;13.526;2023-05-29T02:50:48;9.50;85.00
33865;DHT22;20159;51.072;13.526;2023-05-29T02:53:13;9.60;85.50
33865;DHT22;20159;51.072;13.526;2023-05-29T02:55:39;9.50;85.70
33865;DHT22;20159;51.072;13.526;2023-05-29T02:58:05;9.50;86.40
33865;DHT22;20159;51.072;13.526;2023-05-29T03:00:30;9.50;86.20
33865;DHT22;20159;51.072;13.526;2023-05-29T03:02:56;9.60;86.40
33865;DHT22;20159;51.072;13.526;2023-05-29T03:05:21;9.50;86.30
33865;DHT22;20159;51.072;13.526;2023-05-29T03:07:47;9.50;86.20
33865;DHT22;20159;51.072;13.526;2023-05-29T03:10:13;9.50;86.10
33865;DHT22;20159;51.072;13.526;2023-05-29T03:12:42;9.50;86.40
33865;DHT22;20159;51.072;13.526;2023-05-29T03:15:09;9.50;86.70
33865;DHT22;20159;51.072;13.526;2023-05-29T03:17:34;9.50;86.90
33865;DHT22;20159;51.072;13.526;2023-05-29T03:20:02;9.50;86.80
33865;DHT22;20159;51.072;13.526;2023-05-29T03:22:31;9.40;86.70
33865;DHT22;20159;51.072;13.526;2023-05-29T03:24:57;9.40;86.80
33865;DHT22;20159;51.072;13.526;2023-05-29T03:27:22;9.50;87.00
33865;DHT22;20159;51.072;13.526;2023-05-29T03:29:48;9.40;87.00
33865;DHT22;20159;51.072;13.526;2023-05-29T03:32:14;9.40;86.90
33865;DHT22;20159;51.072;13.526;2023-05-29T03:34:39;9.40;86.70
33865;DHT22;20159;51.072;13.526;2023-05-29T03:37:05;9.30;86.40
33865;DHT22;20159;51.072;13.526;2023-05-29T03:39:31;9.40;86.30
33865;DHT22;20159;51.072;13.526;2023-05-29T03:41:56;9.30;87.10
33865;DHT22;20159;51.072;13.526;2023-05-29T03:44:22;9.30;86.90
33865;DHT22;20159;51.072;13.526;2023-05-29T03:46:47;9.30;87.10
33865;DHT22;20159;51.072;13.526;2023-05-29T03:49:13;9.30;87.30
33865;DHT22;20159;51.072;13.526;2023-05-29T03:51:38;9.40;87.50
33865;DHT22;20159;51.072;13.526;2023-05-29T03:54:04;9.30;87.30
33865;DHT22;20159;51.072;13.526;2023-05-29T03:56:29;9.40;87.60
33865;DHT22;20159;51.072;13.526;2023-05-29T03:58:55;9.40;87.60
33865;DHT22;20159;51.072;13.526;2023-05-29T04:01:21;9.40;87.90
33865;DHT22;20159;51.072;13.526;2023-05-29T04:03:46;9.40;88.20
33865;DHT22;20159;51.072;13.526;2023-05-29T04:06:12;11.40;89.60
33865;DHT22;20159;51.072;13.526;2023-05-29T04:08:38;9.50;88.70
33865;DHT22;20159;51.072;13.526;2023-05-29T04:11:03;9.60;88.90
33865;DHT22;20159;51.072;13.526;2023-05-29T04:13:30;11.70;89.80
33865;DHT22;20159;51.072;13.526;2023-05-29T04:15:55;9.70;88.90
33865;DHT22;20159;51.072;13.526;2023-05-29T04:18:21;9.80;89.40
33865;DHT22;20159;51.072;13.526;2023-05-29T04:20:46;9.90;90.00
33865;DHT22;20159;51.072;13.526;2023-05-29T04:23:13;10.00;90.30
33865;DHT22;20159;51.072;13.526;2023-05-29T04:25:39;10.20;90.60
33865;DHT22;20159;51.072;13.526;2023-05-29T04:28:04;10.40;90.80
33865;DHT22;20159;51.072;13.526;2023-05-29T04:30:30;10.70;90.80
33865;DHT22;20159;51.072;13.526;2023-05-29T04:32:57;11.00;90.70
33865;DHT22;20159;51.072;13.526;2023-05-29T04:35:23;11.30;90.80
33865;DHT22;20159;51.072;13.526;2023-05-29T04:37:48;11.70;90.40
33865;DHT22;20159;51.072;13.526;2023-05-29T04:40:14;12.00;90.20
33865;DHT22;20159;51.072;13.526;2023-05-29T04:42:43;12.40;90.10
33865;DHT22;20159;51.072;13.526;2023-05-29T04:45:11;12.80;89.60
33865;DHT22;20159;51.072;13.526;2023-05-29T04:47:36;13.20;88.50
33865;DHT22;20159;51.072;13.526;2023-05-29T04:50:17;13.60;87.70
33865;DHT22;20159;51.072;13.526;2023-05-29T04:52:43;14.00;86.50
33865;DHT22;20159;51.072;13.526;2023-05-29T04:55:09;14.40;86.10
33865;DHT22;20159;51.072;13.526;2023-05-29T04:57:36;14.80;85.70
33865;DHT22;20159;51.072;13.526;2023-05-29T05:00:03;15.20;85.20
33865;DHT22;20159;51.072;13.526;2023-05-29T05:02:33;15.60;83.50
33865;DHT22;20159;51.072;13.526;2023-05-29T05:04:59;16.00;82.90
33865;DHT22;20159;51.072;13.526;2023-05-29T05:07:24;16.40;82.30
33865;DHT22;20159;51.072;13.526;2023-05-29T05:09:50;16.80;82.00
33865;DHT22;20159;51.072;13.526;2023-05-29T05:12:16;17.20;80.20
33865;DHT22;20159;51.072;13.526;2023-05-29T05:14:41;17.60;79.30
33865;DHT22;20159;51.072;13.526;2023-05-29T05:17:07;18.00;79.30
33865;DHT22;20159;51.072;13.526;2023-05-29T05:19:32;18.40;78.30
33865;DHT22;20159;51.072;13.526;2023-05-29T05:21:58;18.80;77.20
33865;DHT22;20159;51.072;13.526;2023-05-29T05:24:23;19.20;76.10
33865;DHT22;20159;51.072;13.526;2023-05-29T05:26:49;19.20;74.80
33865;DHT22;20159;51.072;13.526;2023-05-29T05:29:14;20.00;74.70
33865;DHT22;20159;51.072;13.526;2023-05-29T05:31:40;20.40;75.20
33865;DHT22;20159;51.072;13.526;2023-05-29T05:34:05;20.80;74.10
33865;DHT22;20159;51.072;13.526;2023-05-29T05:36:31;21.20;74.00
33865;DHT22;20159;51.072;13.526;2023-05-29T05:38:58;21.60;72.30
33865;DHT22;20159;51.072;13.526;2023-05-29T05:41:23;21.90;71.40
33865;DHT22;20159;51.072;13.526;2023-05-29T05:43:49;22.30;70.20
33865;DHT22;20159;51.072;13.526;2023-05-29T05:46:15;22.60;69.80
33865;DHT22;20159;51.072;13.526;2023-05-29T05:48:42;23.00;67.90
33865;DHT22;20159;51.072;13.526;2023-05-29T05:51:08;23.30;66.30
33865;DHT22;20159;51.072;13.526;2023-05-29T05:53:33;23.70;65.00
33865;DHT22;20159;51.072;13.526;2023-05-29T05:55:58;24.00;63.20
33865;DHT22;20159;51.072;13.526;2023-05-29T05:58:24;24.30;63.00
33865;DHT22;20159;51.072;13.526;2023-05-29T06:00:50;24.70;62.10
33865;DHT22;20159;51.072;13.526;2023-05-29T06:03:17;25.00;61.90
33865;DHT22;20159;51.072;13.526;2023-05-29T06:05:43;25.30;60.60
33865;DHT22;20159;51.072;13.526;2023-05-29T06:08:08;25.70;59.40
33865;DHT22;20159;51.072;13.526;2023-05-29T06:10:34;26.00;58.70
33865;DHT22;20159;51.072;13.526;2023-05-29T06:13:00;26.40;56.90
33865;DHT22;20159;51.072;13.526;2023-05-29T06:15:25;26.70;54.20
33865;DHT22;20159;51.072;13.526;2023-05-29T06:17:50;27.00;53.30
33865;DHT22;20159;51.072;13.526;2023-05-29T06:20:17;27.30;51.60
33865;DHT22;20159;51.072;13.526;2023-05-29T06:22:43;27.50;51.70
33865;DHT22;20159;51.072;13.526;2023-05-29T06:25:08;27.80;50.90
33865;DHT22;20159;51.072;13.526;2023-05-29T06:27:35;28.00;51.50
33865;DHT22;20159;51.072;13.526;2023-05-29T06:30:00;28.30;51.00
33865;DHT22;20159;51.072;13.526;2023-05-29T06:32:26;28.50;50.50
33865;DHT22;20159;51.072;13.526;2023-05-29T06:34:53;28.70;50.60
33865;DHT22;20159;51.072;13.526;2023-05-29T06:37:19;29.00;48.50
33865;DHT22;20159;51.072;13.526;2023-05-29T06:39:45;29.30;48.70
33865;DHT22;20159;51.072;13.526;2023-05-29T06:42:11;29.50;47.50
33865;DHT22;20159;51.072;13.526;2023-05-29T06:44:36;29.60;47.30
33865;DHT22;20159;51.072;13.526;2023-05-29T06:47:02;29.80;45.90
33865;DHT22;20159;51.072;13.526;2023-05-29T06:49:27;30.10;45.30
33865;DHT22;20159;51.072;13.526;2023-05-29T06:51:52;30.20;45.80
33865;DHT22;20159;51.072;13.526;2023-05-29T06:54:18;30.40;44.60
33865;DHT22;20159;51.072;13.526;2023-05-29T06:56:43;30.50;43.60
33865;DHT22;20159;51.072;13.526;2023-05-29T06:59:09;30.70;43.80
33865;DHT22;20159;51.072;13.526;2023-05-29T07:01:34;30.90;43.00
33865;DHT22;20159;51.072;13.526;2023-05-29T07:04:00;31.00;43.00
33865;DHT22;20159;51.072;13.526;2023-05-29T07:06:26;31.20;42.80
33865;DHT22;20159;51.072;13.526;2023-05-29T07:08:51;31.40;42.00
33865;DHT22;20159;51.072;13.526;2023-05-29T07:11:17;31.50;42.10
33865;DHT22;20159;51.072;13.526;2023-05-29T07:13:42;31.80;41.60
33865;DHT22;20159;51.072;13.526;2023-05-29T07:16:08;32.00;41.50
33865;DHT22;20159;51.072;13.526;2023-05-29T07:18:33;32.10;40.40
33865;DHT22;20159;51.072;13.526;2023-05-29T07:21:00;32.30;40.10
33865;DHT22;20159;51.072;13.526;2023-05-29T07:23:25;32.40;39.70
33865;DHT22;20159;51.072;13.526;2023-05-29T07:25:51;32.50;39.00
33865;DHT22;20159;51.072;13.526;2023-05-29T07:28:16;32.60;39.00
33865;DHT22;20159;51.072;13.526;2023-05-29T07:30:42;32.70;38.80
33865;DHT22;20159;51.072;13.526;2023-05-29T07:33:07;32.70;39.30
33865;DHT22;20159;51.072;13.526;2023-05-29T07:35:33;32.70;38.50
33865;DHT22;20159;51.072;13.526;2023-05-29T07:37:59;32.80;38.30
33865;DHT22;20159;51.072;13.526;2023-05-29T07:40:25;32.90;38.10
33865;DHT22;20159;51.072;13.526;2023-05-29T07:42:50;32.90;38.50
33865;DHT22;20159;51.072;13.526;2023-05-29T07:45:15;33.00;38.20
33865;DHT22;20159;51.072;13.526;2023-05-29T07:47:41;33.10;37.90
33865;DHT22;20159;51.072;13.526;2023-05-29T07:50:08;33.20;39.00
33865;DHT22;20159;51.072;13.526;2023-05-29T07:52:33;33.20;37.90
33865;DHT22;20159;51.072;13.526;2023-05-29T07:54:59;33.30;37.60
33865;DHT22;20159;51.072;13.526;2023-05-29T07:57:27;33.30;37.70
33865;DHT22;20159;51.072;13.526;2023-05-29T07:59:53;33.30;37.40
33865;DHT22;20159;51.072;13.526;2023-05-29T08:02:18;33.40;37.30
33865;DHT22;20159;51.072;13.526;2023-05-29T08:04:43;33.30;37.80
33865;DHT22;20159;51.072;13.526;2023-05-29T08:07:09;33.40;37.60
33865;DHT22;20159;51.072;13.526;2023-05-29T08:09:35;33.40;37.10
33865;DHT22;20159;51.072;13.526;2023-05-29T08:12:01;33.40;37.40
33865;DHT22;20159;51.072;13.526;2023-05-29T08:14:27;33.40;37.10
33865;DHT22;20159;51.072;13.526;2023-05-29T08:16:52;33.30;36.40
33865;DHT22;20159;51.072;13.526;2023-05-29T08:19:18;33.30;36.60
33865;DHT22;20159;51.072;13.526;2023-05-29T08:21:43;33.30;36.80
33865;DHT22;20159;51.072;13.526;2023-05-29T08:24:09;33.30;37.00
33865;DHT22;20159;51.072;13.526;2023-05-29T08:26:35;33.20;36.70
33865;DHT22;20159;51.072;13.526;2023-05-29T08:29:00;33.20;37.00
33865;DHT22;20159;51.072;13.526;2023-05-29T08:31:26;33.10;37.10
33865;DHT22;20159;51.072;13.526;2023-05-29T08:33:52;33.00;37.30
33865;DHT22;20159;51.072;13.526;2023-05-29T08:36:18;32.90;37.10
33865;DHT22;20159;51.072;13.526;2023-05-29T08:38:47;32.90;36.80
33865;DHT22;20159;51.072;13.526;2023-05-29T08:44:03;32.70;35.70
33865;DHT22;20159;51.072;13.526;2023-05-29T08:46:31;32.60;36.00
33865;DHT22;20159;51.072;13.526;2023-05-29T08:48:58;32.50;36.70
33865;DHT22;20159;51.072;13.526;2023-05-29T08:51:27;32.50;36.80
33865;DHT22;20159;51.072;13.526;2023-05-29T08:53:55;32.40;36.80
33865;DHT22;20159;51.072;13.526;2023-05-29T08:56:21;32.40;36.90
33865;DHT22;20159;51.072;13.526;2023-05-29T08:58:47;32.40;36.30
33865;DHT22;20159;51.072;13.526;2023-05-29T09:01:14;32.40;35.90
33865;DHT22;20159;51.072;13.526;2023-05-29T09:03:39;32.30;35.50
33865;DHT22;20159;51.072;13.526;2023-05-29T09:06:07;32.30;35.60
33865;DHT22;20159;51.072;13.526;2023-05-29T09:08:34;32.20;36.80
33865;DHT22;20159;51.072;13.526;2023-05-29T09:11:00;32.20;35.60
33865;DHT22;20159;51.072;13.526;2023-05-29T09:13:25;32.20;36.00
33865;DHT22;20159;51.072;13.526;2023-05-29T09:15:58;32.20;35.60
33865;DHT22;20159;51.072;13.526;2023-05-29T09:18:23;32.10;35.10
33865;DHT22;20159;51.072;13.526;2023-05-29T09:20:49;32.10;35.40
33865;DHT22;20159;51.072;13.526;2023-05-29T09:23:14;32.00;35.50
33865;DHT22;20159;51.072;13.526;2023-05-29T09:25:41;32.00;35.40
33865;DHT22;20159;51.072;13.526;2023-05-29T09:28:09;31.90;35.80
33865;DHT22;20159;51.072;13.526;2023-05-29T09:30:42;31.80;35.30
33865;DHT22;20159;51.072;13.526;2023-05-29T09:33:13;31.80;35.20
33865;DHT22;20159;51.072;13.526;2023-05-29T09:35:46;31.70;36.10
33865;DHT22;20159;51.072;13.526;2023-05-29T09:38:17;31.60;35.20
33865;DHT22;20159;51.072;13.526;2023-05-29T09:40:43;31.60;35.30
33865;DHT22;20159;51.072;13.526;2023-05-29T09:43:16;31.50;35.40
33865;DHT22;20159;51.072;13.526;2023-05-29T09:45:47;31.50;34.80
33865;DHT22;20159;51.072;13.526;2023-05-29T09:48:14;31.40;34.70
33865;DHT22;20159;51.072;13.526;2023-05-29T09:50:40;31.40;35.50
33865;DHT22;20159;51.072;13.526;2023-05-29T09:53:21;31.40;35.40
33865;DHT22;20159;51.072;13.526;2023-05-29T09:55:53;31.40;34.80
33865;DHT22;20159;51.072;13.526;2023-05-29T09:58:20;31.30;35.00
33865;DHT22;20159;51.072;13.526;2023-05-29T10:00:47;31.30;35.70
33865;DHT22;20159;51.072;13.526;2023-05-29T10:03:14;31.40;35.80
33865;DHT22;20159;51.072;13.526;2023-05-29T10:05:49;31.40;35.60
33865;DHT22;20159;51.072;13.526;2023-05-29T10:08:18;31.40;35.80
33865;DHT22;20159;51.072;13.526;2023-05-29T10:11:06;31.50;35.00
33865;DHT22;20159;51.072;13.526;2023-05-29T10:13:38;31.50;35.10
33865;DHT22;20159;51.072;13.526;2023-05-29T10:16:08;31.60;34.90
33865;DHT22;20159;51.072;13.526;2023-05-29T10:18:43;31.60;35.30
33865;DHT22;20159;51.072;13.526;2023-05-29T10:21:12;31.70;35.20
33865;DHT22;20159;51.072;13.526;2023-05-29T10:23:38;31.70;35.20
33865;DHT22;20159;51.072;13.526;2023-05-29T10:26:14;31.80;35.20
33865;DHT22;20159;51.072;13.526;2023-05-29T10:28:44;31.80;35.10
33865;DHT22;20159;51.072;13.526;2023-05-29T10:31:18;31.90;35.30
33865;DHT22;20159;51.072;13.526;2023-05-29T10:33:56;32.00;34.90
33865;DHT22;20159;51.072;13.526;2023-05-29T10:36:26;32.10;35.00
33865;DHT22;20159;51.072;13.526;2023-05-29T10:38:53;32.20;34.70
33865;DHT22;20159;51.072;13.526;2023-05-29T10:43:57;32.30;34.40
33865;DHT22;20159;51.072;13.526;2023-05-29T10:49:17;32.30;35.30
33865;DHT22;20159;51.072;13.526;2023-05-29T10:51:42;32.30;35.60
33865;DHT22;20159;51.072;13.526;2023-05-29T10:54:09;32.40;36.10
33865;DHT22;20159;51.072;13.526;2023-05-29T10:56:35;32.40;35.70
33865;DHT22;20159;51.072;13.526;2023-05-29T10:59:01;32.40;34.50
33865;DHT22;20159;51.072;13.526;2023-05-29T11:01:28;32.40;34.80
33865;DHT22;20159;51.072;13.526;2023-05-29T11:06:45;32.40;34.00
33865;DHT22;20159;51.072;13.526;2023-05-29T11:15:09;32.40;34.70
33865;DHT22;20159;51.072;13.526;2023-05-29T11:20:14;32.50;35.20
33865;DHT22;20159;51.072;13.526;2023-05-29T11:23:02;32.60;34.20
33865;DHT22;20159;51.072;13.526;2023-05-29T11:25:28;32.60;34.00
33865;DHT22;20159;51.072;13.526;2023-05-29T11:27:54;32.60;33.70
33865;DHT22;20159;51.072;13.526;2023-05-29T11:30:20;32.50;33.60
33865;DHT22;20159;51.072;13.526;2023-05-29T11:32:47;32.40;33.40
33865;DHT22;20159;51.072;13.526;2023-05-29T11:35:13;32.40;33.60
33865;DHT22;20159;51.072;13.526;2023-05-29T11:37:40;32.40;33.70
33865;DHT22;20159;51.072;13.526;2023-05-29T11:40:09;32.40;33.80
33865;DHT22;20159;51.072;13.526;2023-05-29T11:42:35;31.40;33.10
33865;DHT22;20159;51.072;13.526;2023-05-29T11:45:14;32.40;34.30
33865;DHT22;20159;51.072;13.526;2023-05-29T11:47:57;32.50;34.50
33865;DHT22;20159;51.072;13.526;2023-05-29T11:50:26;32.50;34.00
33865;DHT22;20159;51.072;13.526;2023-05-29T11:52:51;32.50;33.00
33865;DHT22;20159;51.072;13.526;2023-05-29T11:55:18;32.50;33.20
33865;DHT22;20159;51.072;13.526;2023-05-29T11:57:45;32.50;33.70
33865;DHT22;20159;51.072;13.526;2023-05-29T12:00:18;32.50;33.80
33865;DHT22;20159;51.072;13.526;2023-05-29T12:02:44;32.60;34.10
33865;DHT22;20159;51.072;13.526;2023-05-29T12:05:13;32.70;33.80
33865;DHT22;20159;51.072;13.526;2023-05-29T12:07:54;32.80;33.30
33865;DHT22;20159;51.072;13.526;2023-05-29T12:10:22;32.90;33.80
33865;DHT22;20159;51.072;13.526;2023-05-29T12:12:55;33.00;33.70
33865;DHT22;20159;51.072;13.526;2023-05-29T12:15:21;33.20;33.60
33865;DHT22;20159;51.072;13.526;2023-05-29T12:17:48;33.30;33.50
33865;DHT22;20159;51.072;13.526;2023-05-29T12:20:14;33.40;33.60
33865;DHT22;20159;51.072;13.526;2023-05-29T12:22:41;33.50;33.50
33865;DHT22;20159;51.072;13.526;2023-05-29T12:27:34;33.70;33.60
33865;DHT22;20159;51.072;13.526;2023-05-29T12:30:07;33.80;33.30
33865;DHT22;20159;51.072;13.526;2023-05-29T12:32:38;33.90;33.50
33865;DHT22;20159;51.072;13.526;2023-05-29T12:35:15;33.90;32.50
33865;DHT22;20159;51.072;13.526;2023-05-29T12:38:00;34.00;32.30
33865;DHT22;20159;51.072;13.526;2023-05-29T12:40:28;34.00;32.60
33865;DHT22;20159;51.072;13.526;2023-05-29T12:42:55;34.10;32.40
33865;DHT22;20159;51.072;13.526;2023-05-29T12:45:28;34.10;32.40
33865;DHT22;20159;51.072;13.526;2023-05-29T12:47:59;34.20;31.70
33865;DHT22;20159;51.072;13.526;2023-05-29T12:53:06;33.70;31.60
33865;DHT22;20159;51.072;13.526;2023-05-29T12:55:34;34.20;32.00
33865;DHT22;20159;51.072;13.526;2023-05-29T12:58:03;34.20;32.30
33865;DHT22;20159;51.072;13.526;2023-05-29T13:00:29;34.30;32.60
33865;DHT22;20159;51.072;13.526;2023-05-29T13:02:56;34.30;32.70
33865;DHT22;20159;51.072;13.526;2023-05-29T13:05:22;34.40;32.90
33865;DHT22;20159;51.072;13.526;2023-05-29T13:07:49;34.30;32.50
33865;DHT22;20159;51.072;13.526;2023-05-29T13:10:16;34.40;32.90
33865;DHT22;20159;51.072;13.526;2023-05-29T13:12:42;34.50;32.50
33865;DHT22;20159;51.072;13.526;2023-05-29T13:15:09;34.60;32.80
33865;DHT22;20159;51.072;13.526;2023-05-29T13:17:35;34.70;32.90
33865;DHT22;20159;51.072;13.526;2023-05-29T13:20:00;34.90;32.70
33865;DHT22;20159;51.072;13.526;2023-05-29T13:22:26;35.00;32.80
33865;DHT22;20159;51.072;13.526;2023-05-29T13:24:57;35.20;32.60
33865;DHT22;20159;51.072;13.526;2023-05-29T13:27:23;35.30;31.70
33865;DHT22;20159;51.072;13.526;2023-05-29T13:29:49;35.40;31.60
33865;DHT22;20159;51.072;13.526;2023-05-29T13:32:15;35.40;31.60
33865;DHT22;20159;51.072;13.526;2023-05-29T13:34:42;35.40;31.80
33865;DHT22;20159;51.072;13.526;2023-05-29T13:37:07;35.30;31.50
33865;DHT22;20159;51.072;13.526;2023-05-29T13:39:33;35.30;31.40
33865;DHT22;20159;51.072;13.526;2023-05-29T13:41:58;35.20;31.50
33865;DHT22;20159;51.072;13.526;2023-05-29T13:44:24;35.00;31.30
33865;DHT22;20159;51.072;13.526;2023-05-29T13:46:49;34.80;31.60
33865;DHT22;20159;51.072;13.526;2023-05-29T13:49:16;34.50;32.10
33865;DHT22;20159;51.072;13.526;2023-05-29T13:51:41;34.20;32.40
33865;DHT22;20159;51.072;13.526;2023-05-29T13:54:07;33.90;32.80
33865;DHT22;20159;51.072;13.526;2023-05-29T13:56:32;33.50;32.90
33865;DHT22;20159;51.072;13.526;2023-05-29T13:58:58;33.10;33.10
33865;DHT22;20159;51.072;13.526;2023-05-29T14:01:30;32.70;33.50
33865;DHT22;20159;51.072;13.526;2023-05-29T14:03:56;32.30;33.80
33865;DHT22;20159;51.072;13.526;2023-05-29T14:06:21;32.00;34.50
33865;DHT22;20159;51.072;13.526;2023-05-29T14:08:47;31.70;33.70
33865;DHT22;20159;51.072;13.526;2023-05-29T14:11:12;31.50;34.10
33865;DHT22;20159;51.072;13.526;2023-05-29T14:13:38;31.40;34.00
33865;DHT22;20159;51.072;13.526;2023-05-29T14:16:03;31.40;34.20
33865;DHT22;20159;51.072;13.526;2023-05-29T14:18:29;31.50;34.10
33865;DHT22;20159;51.072;13.526;2023-05-29T14:20:54;31.60;33.90
33865;DHT22;20159;51.072;13.526;2023-05-29T14:23:20;31.70;33.80
33865;DHT22;20159;51.072;13.526;2023-05-29T14:25:45;31.80;34.30
33865;DHT22;20159;51.072;13.526;2023-05-29T14:28:11;32.00;34.10
33865;DHT22;20159;51.072;13.526;2023-05-29T14:30:37;32.00;34.00
33865;DHT22;20159;51.072;13.526;2023-05-29T14:33:03;32.00;34.40
33865;DHT22;20159;51.072;13.526;2023-05-29T14:35:29;32.10;35.00
33865;DHT22;20159;51.072;13.526;2023-05-29T14:37:56;32.10;34.80
33865;DHT22;20159;51.072;13.526;2023-05-29T14:40:21;32.10;34.20
33865;DHT22;20159;51.072;13.526;2023-05-29T14:42:47;32.20;34.70
33865;DHT22;20159;51.072;13.526;2023-05-29T14:45:12;32.30;33.70
33865;DHT22;20159;51.072;13.526;2023-05-29T14:47:40;32.40;34.10
33865;DHT22;20159;51.072;13.526;2023-05-29T14:50:06;32.50;34.00
33865;DHT22;20159;51.072;13.526;2023-05-29T14:52:31;32.60;33.70
33865;DHT22;20159;51.072;13.526;2023-05-29T14:54:57;32.70;33.40
33865;DHT22;20159;51.072;13.526;2023-05-29T14:57:23;32.70;33.90
33865;DHT22;20159;51.072;13.526;2023-05-29T14:59:48;32.90;33.30
33865;DHT22;20159;51.072;13.526;2023-05-29T15:02:15;32.90;33.00
33865;DHT22;20159;51.072;13.526;2023-05-29T15:04:41;33.00;33.30
33865;DHT22;20159;51.072;13.526;2023-05-29T15:07:06;32.90;33.10
33865;DHT22;20159;51.072;13.526;2023-05-29T15:09:32;32.70;33.50
33865;DHT22;20159;51.072;13.526;2023-05-29T15:11:57;32.50;34.10
33865;DHT22;20159;51.072;13.526;2023-05-29T15:14:23;32.20;34.30
33865;DHT22;20159;51.072;13.526;2023-05-29T15:16:49;31.90;34.30
33865;DHT22;20159;51.072;13.526;2023-05-29T15:19:15;31.60;34.60
33865;DHT22;20159;51.072;13.526;2023-05-29T15:21:40;31.30;35.30
33865;DHT22;20159;51.072;13.526;2023-05-29T15:24:06;31.00;35.50
33865;DHT22;20159;51.072;13.526;2023-05-29T15:26:33;30.70;35.40
33865;DHT22;20159;51.072;13.526;2023-05-29T15:28:59;30.50;35.20
33865;DHT22;20159;51.072;13.526;2023-05-29T15:31:24;30.30;35.10
33865;DHT22;20159;51.072;13.526;2023-05-29T15:33:50;30.10;35.40
33865;DHT22;20159;51.072;13.526;2023-05-29T15:36:16;30.10;36.10
33865;DHT22;20159;51.072;13.526;2023-05-29T15:38:42;30.10;36.00
33865;DHT22;20159;51.072;13.526;2023-05-29T15:41:07;30.20;36.30
33865;DHT22;20159;51.072;13.526;2023-05-29T15:43:33;30.30;36.00
33865;DHT22;20159;51.072;13.526;2023-05-29T15:45:58;30.50;35.60
33865;DHT22;20159;51.072;13.526;2023-05-29T15:48:24;30.60;35.50